sensor_id;sensor_type;location;lat;lon;timestamp;temperature;humidity
1383;DHT22;685;47.196;11.880;2023-06-04T00:00:54;16.00;99.90
1383;DHT22;685;47.196;11.880;2023-06-04T00:03:23;15.90;99.90
1383;DHT22;685;47.196;11.880;2023-06-04T00:05:50;15.90;99.90
1383;DHT22;685;47.196;11.880;2023-06-04T00:08:17;15.90;99.90
1383;DHT22;685;47.196;11.880;2023-06-04T00:10:45;15.90;99.90
1383;DHT22;685;47.196;11.880;2023-06-04T00:13:12;15.90;99.90
1383;DHT22;685;47.196;11.880;2023-06-04T00:15:39;15.80;99.90
1383;DHT22;685;47.196;11.880;2023-06-04T00:18:06;15.80;99.90
1383;DHT22;685;47.196;11.880;2023-06-04T00:20:34;15.80;99.90
1383;DHT22;685;47.196;11.880;2023-06-04T00:23:01;15.90;99.90
1383;DHT22;685;47.196;11.880;2023-06-04T00:25:27;15.90;99.90
1383;DHT22;685;47.196;11.880;2023-06-04T00:27:56;15.90;99.90
1383;DHT22;685;47.196;11.880;2023-06-04T00:30:23;15.90;99.90
1383;DHT22;685;47.196;11.880;2023-06-04T00:32:50;15.90;99.90
1383;DHT22;685;47.196;11.880;2023-06-04T00:35:16;15.90;99.90
1383;DHT22;685;47.196;11.880;2023-06-04T00:37:43;15.90;99.90
1383;DHT22;685;47.196;11.880;2023-06-04T00:40:11;15.90;99.90
1383;DHT22;685;47.196;11.880;2023-06-04T00:42:38;15.90;99.90
1383;DHT22;685;47.196;11.880;2023-06-04T00:45:08;15.90;99.90
1383;DHT22;685;47.196;11.880;2023-06-04T00:47:35;15.90;99.90
1383;DHT22;685;47.196;11.880;2023-06-04T00:50:03;15.80;99.90
1383;DHT22;685;47.196;11.880;2023-06-04T00:52:30;15.80;99.90
1383;DHT22;685;47.196;11.880;2023-06-04T00:54:57;15.90;99.90
1383;DHT22;685;47.196;11.880;2023-06-04T00:57:24;15.90;99.90
1383;DHT22;685;47.196;11.880;2023-06-04T00:59:51;15.90;99.90
1383;DHT22;685;47.196;11.880;2023-06-04T01:02:22;15.90;99.90
1383;DHT22;685;47.196;11.880;2023-06-04T01:04:54;16.00;99.90
1383;DHT22;685;47.196;11.880;2023-06-04T01:07:22;16.00;99.90
1383;DHT22;685;47.196;11.880;2023-06-04T01:09:50;16.00;99.90
1383;DHT22;685;47.196;11.880;2023-06-04T01:12:17;16.00;99.90
1383;DHT22;685;47.196;11.880;2023-06-04T01:14:44;15.80;99.90
1383;DHT22;685;47.196;11.880;2023-06-04T01:17:15;15.60;99.90
1383;DHT22;685;47.196;11.880;2023-06-04T01:23:14;15.50;99.90
1383;DHT22;685;47.196;11.880;2023-06-04T01:25:42;15.50;99.90
1383;DHT22;685;47.196;11.880;2023-06-04T01:28:11;15.40;99.90
1383;DHT22;685;47.196;11.880;2023-06-04T01:30:39;15.40;99.90
1383;DHT22;685;47.196;11.880;2023-06-04T01:33:09;15.40;99.90
1383;DHT22;685;47.196;11.880;2023-06-04T01:35:36;15.50;99.90
1383;DHT22;685;47.196;11.880;2023-06-04T01:38:05;15.50;99.90
1383;DHT22;685;47.196;11.880;2023-06-04T01:40:32;15.50;99.90
1383;DHT22;685;47.196;11.880;2023-06-04T01:42:59;15.50;99.90
1383;DHT22;685;47.196;11.880;2023-06-04T01:45:27;15.50;99.90
1383;DHT22;685;47.196;11.880;2023-06-04T01:47:54;15.60;99.90
1383;DHT22;685;47.196;11.880;2023-06-04T01:50:22;15.60;99.90
1383;DHT22;685;47.196;11.880;2023-06-04T01:52:49;15.60;99.90
1383;DHT22;685;47.196;11.880;2023-06-04T01:55:18;15.60;99.90
1383;DHT22;685;47.196;11.880;2023-06-04T01:57:45;15.60;99.90
1383;DHT22;685;47.196;11.880;2023-06-04T02:00:13;15.60;99.90
1383;DHT22;685;47.196;11.880;2023-06-04T02:02:42;15.60;99.90
1383;DHT22;685;47.196;11.880;2023-06-04T02:05:10;15.60;99.90
1383;DHT22;685;47.196;11.880;2023-06-04T02:07:38;15.60;99.90
1383;DHT22;685;47.196;11.880;2023-06-04T02:10:06;15.60;99.90
1383;DHT22;685;47.196;11.880;2023-06-04T02:12:36;15.60;99.90
1383;DHT22;685;47.196;11.880;2023-06-04T02:15:04;15.60;99.90
1383;DHT22;685;47.196;11.880;2023-06-04T02:17:32;15.60;99.90
1383;DHT22;685;47.196;11.880;2023-06-04T02:20:03;15.60;99.90
1383;DHT22;685;47.196;11.880;2023-06-04T02:22:31;15.70;99.90
1383;DHT22;685;47.196;11.880;2023-06-04T02:24:58;15.70;99.90
1383;DHT22;685;47.196;11.880;2023-06-04T02:27:25;15.70;99.90
1383;DHT22;685;47.196;11.880;2023-06-04T02:29:56;15.70;99.90
1383;DHT22;685;47.196;11.880;2023-06-04T02:32:23;15.60;99.90
1383;DHT22;685;47.196;11.880;2023-06-04T02:34:50;15.60;99.90
1383;DHT22;685;47.196;11.880;2023-06-04T02:37:17;15.60;99.90
1383;DHT22;685;47.196;11.880;2023-06-04T02:39:44;15.60;99.90
1383;DHT22;685;47.196;11.880;2023-06-04T02:42:11;15.60;99.90
1383;DHT22;685;47.196;11.880;2023-06-04T02:44:38;15.60;99.90
1383;DHT22;685;47.196;11.880;2023-06-04T02:47:06;15.60;99.90
1383;DHT22;685;47.196;11.880;2023-06-04T02:49:33;15.50;99.90
1383;DHT22;685;47.196;11.880;2023-06-04T02:52:00;15.30;99.90
1383;DHT22;685;47.196;11.880;2023-06-04T02:54:27;15.30;99.90
1383;DHT22;685;47.196;11.880;2023-06-04T02:56:54;15.30;99.90
1383;DHT22;685;47.196;11.880;2023-06-04T02:59:21;15.30;99.90
1383;DHT22;685;47.196;11.880;2023-06-04T03:01:48;15.30;99.90
1383;DHT22;685;47.196;11.880;2023-06-04T03:04:16;15.20;99.90
1383;DHT22;685;47.196;11.880;2023-06-04T03:06:43;15.10;99.90
1383;DHT22;685;47.196;11.880;2023-06-04T03:09:11;15.00;99.90
1383;DHT22;685;47.196;11.880;2023-06-04T03:11:39;14.90;99.90
1383;DHT22;685;47.196;11.880;2023-06-04T03:14:06;14.90;99.90
1383;DHT22;685;47.196;11.880;2023-06-04T03:16:33;14.80;99.90
1383;DHT22;685;47.196;11.880;2023-06-04T03:18:59;14.80;99.90
1383;DHT22;685;47.196;11.880;2023-06-04T03:21:28;14.80;99.90
1383;DHT22;685;47.196;11.880;2023-06-04T03:23:55;14.80;99.90
1383;DHT22;685;47.196;11.880;2023-06-04T03:26:22;14.70;99.90
1383;DHT22;685;47.196;11.880;2023-06-04T03:28:49;14.60;99.90
1383;DHT22;685;47.196;11.880;2023-06-04T03:31:16;14.60;99.90
1383;DHT22;685;47.196;11.880;2023-06-04T03:33:44;14.60;99.90
1383;DHT22;685;47.196;11.880;2023-06-04T03:36:10;14.70;99.90
1383;DHT22;685;47.196;11.880;2023-06-04T03:38:39;14.60;99.90
1383;DHT22;685;47.196;11.880;2023-06-04T03:41:06;14.70;99.90
1383;DHT22;685;47.196;11.880;2023-06-04T03:43:33;14.70;99.90
1383;DHT22;685;47.196;11.880;2023-06-04T03:46:00;14.80;99.90
1383;DHT22;685;47.196;11.880;2023-06-04T03:48:26;14.80;99.90
1383;DHT22;685;47.196;11.880;2023-06-04T03:50:53;14.80;99.90
1383;DHT22;685;47.196;11.880;2023-06-04T03:53:20;14.80;99.90
1383;DHT22;685;47.196;11.880;2023-06-04T03:55:49;14.80;99.90
1383;DHT22;685;47.196;11.880;2023-06-04T03:58:15;14.80;99.90
1383;DHT22;685;47.196;11.880;2023-06-04T04:00:43;14.80;99.90
1383;DHT22;685;47.196;11.880;2023-06-04T04:03:10;14.80;99.90
1383;DHT22;685;47.196;11.880;2023-06-04T04:05:37;14.90;99.90
1383;DHT22;685;47.196;11.880;2023-06-04T04:08:04;15.00;99.90
1383;DHT22;685;47.196;11.880;2023-06-04T04:10:31;15.00;99.90
1383;DHT22;685;47.196;11.880;2023-06-04T04:13:00;15.00;99.90
1383;DHT22;685;47.196;11.880;2023-06-04T04:15:26;15.10;99.90
1383;DHT22;685;47.196;11.880;2023-06-04T04:17:55;15.10;99.90
1383;DHT22;685;47.196;11.880;2023-06-04T04:20:22;15.10;99.90
1383;DHT22;685;47.196;11.880;2023-06-04T04:22:49;15.20;99.90
1383;DHT22;685;47.196;11.880;2023-06-04T04:25:16;15.20;99.90
1383;DHT22;685;47.196;11.880;2023-06-04T04:27:42;15.20;99.90
1383;DHT22;685;47.196;11.880;2023-06-04T04:30:12;15.20;99.90
1383;DHT22;685;47.196;11.880;2023-06-04T04:32:41;15.20;99.90
1383;DHT22;685;47.196;11.880;2023-06-04T04:35:14;15.20;99.90
1383;DHT22;685;47.196;11.880;2023-06-04T04:37:43;15.30;99.90
1383;DHT22;685;47.196;11.880;2023-06-04T04:40:11;15.30;99.90
1383;DHT22;685;47.196;11.880;2023-06-04T04:42:39;15.30;99.90
1383;DHT22;685;47.196;11.880;2023-06-04T04:45:08;15.30;99.90
1383;DHT22;685;47.196;11.880;2023-06-04T04:47:37;15.30;99.90
1383;DHT22;685;47.196;11.880;2023-06-04T04:50:05;15.30;99.90
1383;DHT22;685;47.196;11.880;2023-06-04T04:52:32;15.40;99.90
1383;DHT22;685;47.196;11.880;2023-06-04T04:54:59;15.40;99.90
1383;DHT22;685;47.196;11.880;2023-06-04T04:57:26;15.40;99.90
1383;DHT22;685;47.196;11.880;2023-06-04T04:59:52;15.50;99.90
1383;DHT22;685;47.196;11.880;2023-06-04T05:02:19;15.40;99.90
1383;DHT22;685;47.196;11.880;2023-06-04T05:04:48;15.50;99.90
1383;DHT22;685;47.196;11.880;2023-06-04T05:07:14;15.40;99.90
1383;DHT22;685;47.196;11.880;2023-06-04T05:09:41;15.40;99.90
1383;DHT22;685;47.196;11.880;2023-06-04T05:12:08;15.30;99.90
1383;DHT22;685;47.196;11.880;2023-06-04T05:14:35;15.30;99.90
1383;DHT22;685;47.196;11.880;2023-06-04T05:17:02;15.40;99.90
1383;DHT22;685;47.196;11.880;2023-06-04T05:19:29;15.40;99.90
1383;DHT22;685;47.196;11.880;2023-06-04T05:21:59;15.40;99.90
1383;DHT22;685;47.196;11.880;2023-06-04T05:24:27;15.40;99.90
1383;DHT22;685;47.196;11.880;2023-06-04T05:26:54;15.40;99.90
1383;DHT22;685;47.196;11.880;2023-06-04T05:29:22;15.30;99.90
1383;DHT22;685;47.196;11.880;2023-06-04T05:31:49;15.30;99.90
1383;DHT22;685;47.196;11.880;2023-06-04T05:34:16;15.40;99.90
1383;DHT22;685;47.196;11.880;2023-06-04T05:36:43;15.40;99.90
1383;DHT22;685;47.196;11.880;2023-06-04T05:39:12;15.40;99.90
1383;DHT22;685;47.196;11.880;2023-06-04T05:41:39;15.50;99.90
1383;DHT22;685;47.196;11.880;2023-06-04T05:44:07;15.50;99.90
1383;DHT22;685;47.196;11.880;2023-06-04T05:46:34;15.50;99.90
1383;DHT22;685;47.196;11.880;2023-06-04T05:49:02;15.50;99.90
1383;DHT22;685;47.196;11.880;2023-06-04T05:51:29;15.60;99.90
1383;DHT22;685;47.196;11.880;2023-06-04T05:53:56;15.60;99.90
1383;DHT22;685;47.196;11.880;2023-06-04T05:56:25;15.60;99.90
1383;DHT22;685;47.196;11.880;2023-06-04T05:58:52;15.60;99.90
1383;DHT22;685;47.196;11.880;2023-06-04T06:01:19;15.60;99.90
1383;DHT22;685;47.196;11.880;2023-06-04T06:03:47;15.60;99.90
1383;DHT22;685;47.196;11.880;2023-06-04T06:06:14;15.70;99.90
1383;DHT22;685;47.196;11.880;2023-06-04T06:08:41;15.70;99.90
1383;DHT22;685;47.196;11.880;2023-06-04T06:11:09;15.80;99.90
1383;DHT22;685;47.196;11.880;2023-06-04T06:13:37;15.80;99.90
1383;DHT22;685;47.196;11.880;2023-06-04T06:16:04;15.90;99.90
1383;DHT22;685;47.196;11.880;2023-06-04T06:18:31;16.00;99.90
1383;DHT22;685;47.196;11.880;2023-06-04T06:20:58;16.10;99.90
1383;DHT22;685;47.196;11.880;2023-06-04T06:23:25;16.20;99.90
1383;DHT22;685;47.196;11.880;2023-06-04T06:25:52;16.20;99.90
1383;DHT22;685;47.196;11.880;2023-06-04T06:28:19;16.30;99.90
1383;DHT22;685;47.196;11.880;2023-06-04T06:30:47;16.20;99.90
1383;DHT22;685;47.196;11.880;2023-06-04T06:33:14;16.30;99.90
1383;DHT22;685;47.196;11.880;2023-06-04T06:35:41;16.30;99.90
1383;DHT22;685;47.196;11.880;2023-06-04T06:38:11;16.30;99.90
1383;DHT22;685;47.196;11.880;2023-06-04T06:40:40;16.30;99.90
1383;DHT22;685;47.196;11.880;2023-06-04T06:43:07;16.30;99.90
1383;DHT22;685;47.196;11.880;2023-06-04T06:45:34;16.30;99.90
1383;DHT22;685;47.196;11.880;2023-06-04T06:48:03;16.20;99.90
1383;DHT22;685;47.196;11.880;2023-06-04T06:50:30;16.10;99.90
1383;DHT22;685;47.196;11.880;2023-06-04T06:52:58;16.00;99.90
1383;DHT22;685;47.196;11.880;2023-06-04T06:55:25;16.10;99.90
1383;DHT22;685;47.196;11.880;2023-06-04T06:57:52;16.10;99.90
1383;DHT22;685;47.196;11.880;2023-06-04T07:00:19;16.20;99.90
1383;DHT22;685;47.196;11.880;2023-06-04T07:02:46;16.20;99.90
1383;DHT22;685;47.196;11.880;2023-06-04T07:05:15;16.20;99.90
1383;DHT22;685;47.196;11.880;2023-06-04T07:07:43;16.20;99.90
1383;DHT22;685;47.196;11.880;2023-06-04T07:10:10;16.20;99.90
1383;DHT22;685;47.196;11.880;2023-06-04T07:12:37;16.20;99.90
1383;DHT22;685;47.196;11.880;2023-06-04T07:15:05;16.20;99.90
1383;DHT22;685;47.196;11.880;2023-06-04T07:17:32;16.30;99.90
1383;DHT22;685;47.196;11.880;2023-06-04T07:19:59;16.40;99.90
1383;DHT22;685;47.196;11.880;2023-06-04T07:22:28;16.50;99.90
1383;DHT22;685;47.196;11.880;2023-06-04T07:24:55;16.70;99.90
1383;DHT22;685;47.196;11.880;2023-06-04T07:27:22;16.80;99.90
1383;DHT22;685;47.196;11.880;2023-06-04T07:29:48;16.90;99.90
1383;DHT22;685;47.196;11.880;2023-06-04T07:32:15;17.00;99.90
1383;DHT22;685;47.196;11.880;2023-06-04T07:34:42;17.10;99.90
1383;DHT22;685;47.196;11.880;2023-06-04T07:37:09;17.20;99.90
1383;DHT22;685;47.196;11.880;2023-06-04T07:39:39;17.30;99.90
1383;DHT22;685;47.196;11.880;2023-06-04T07:42:06;17.40;99.90
1383;DHT22;685;47.196;11.880;2023-06-04T07:44:33;17.40;99.90
1383;DHT22;685;47.196;11.880;2023-06-04T07:47:00;17.20;99.90
1383;DHT22;685;47.196;11.880;2023-06-04T07:49:27;17.20;99.90
1383;DHT22;685;47.196;11.880;2023-06-04T07:51:54;17.30;99.90
1383;DHT22;685;47.196;11.880;2023-06-04T07:54:21;17.30;99.90
1383;DHT22;685;47.196;11.880;2023-06-04T07:56:50;17.40;99.90
1383;DHT22;685;47.196;11.880;2023-06-04T07:59:21;17.50;99.90
1383;DHT22;685;47.196;11.880;2023-06-04T08:01:49;17.50;99.90
1383;DHT22;685;47.196;11.880;2023-06-04T08:04:16;17.50;99.90
1383;DHT22;685;47.196;11.880;2023-06-04T08:06:43;17.50;99.90
1383;DHT22;685;47.196;11.880;2023-06-04T08:09:10;17.50;99.90
1383;DHT22;685;47.196;11.880;2023-06-04T08:11:40;17.60;99.90
1383;DHT22;685;47.196;11.880;2023-06-04T08:14:10;17.70;99.90
1383;DHT22;685;47.196;11.880;2023-06-04T08:16:38;17.70;99.90
1383;DHT22;685;47.196;11.880;2023-06-04T08:19:06;17.80;99.90
1383;DHT22;685;47.196;11.880;2023-06-04T08:21:33;18.00;99.90
1383;DHT22;685;47.196;11.880;2023-06-04T08:24:01;18.00;99.90
1383;DHT22;685;47.196;11.880;2023-06-04T08:26:28;18.00;99.90
1383;DHT22;685;47.196;11.880;2023-06-04T08:28:56;17.90;99.90
1383;DHT22;685;47.196;11.880;2023-06-04T08:31:24;18.00;99.90
1383;DHT22;685;47.196;11.880;2023-06-04T08:33:51;18.00;99.90
1383;DHT22;685;47.196;11.880;2023-06-04T08:36:18;17.90;99.90
1383;DHT22;685;47.196;11.880;2023-06-04T08:38:45;17.90;99.90
1383;DHT22;685;47.196;11.880;2023-06-04T08:41:20;17.90;99.90
1383;DHT22;685;47.196;11.880;2023-06-04T08:43:53;18.10;99.90
1383;DHT22;685;47.196;11.880;2023-06-04T08:46:22;18.10;99.90
1383;DHT22;685;47.196;11.880;2023-06-04T08:48:51;18.20;99.90
1383;DHT22;685;47.196;11.880;2023-06-04T08:51:19;18.30;99.90
1383;DHT22;685;47.196;11.880;2023-06-04T08:53:46;18.40;99.90
1383;DHT22;685;47.196;11.880;2023-06-04T08:56:15;18.50;99.90
1383;DHT22;685;47.196;11.880;2023-06-04T08:58:43;18.70;99.90
1383;DHT22;685;47.196;11.880;2023-06-04T09:03:38;18.90;99.90
1383;DHT22;685;47.196;11.880;2023-06-04T09:06:06;19.00;99.90
1383;DHT22;685;47.196;11.880;2023-06-04T09:11:05;19.20;99.90
1383;DHT22;685;47.196;11.880;2023-06-04T09:13:33;19.20;99.90
1383;DHT22;685;47.196;11.880;2023-06-04T09:16:01;19.30;99.90
1383;DHT22;685;47.196;11.880;2023-06-04T09:18:28;19.20;99.90
1383;DHT22;685;47.196;11.880;2023-06-04T09:21:02;19.20;99.90
1383;DHT22;685;47.196;11.880;2023-06-04T09:23:34;19.20;99.90
1383;DHT22;685;47.196;11.880;2023-06-04T09:26:08;19.30;99.90
1383;DHT22;685;47.196;11.880;2023-06-04T09:28:35;19.40;99.90
1383;DHT22;685;47.196;11.880;2023-06-04T09:31:02;19.40;99.90
1383;DHT22;685;47.196;11.880;2023-06-04T09:33:29;19.50;99.90
1383;DHT22;685;47.196;11.880;2023-06-04T09:35:57;19.50;99.90
1383;DHT22;685;47.196;11.880;2023-06-04T09:38:34;19.60;99.90
1383;DHT22;685;47.196;11.880;2023-06-04T09:41:02;19.60;99.90
1383;DHT22;685;47.196;11.880;2023-06-04T09:43:31;19.50;99.90
1383;DHT22;685;47.196;11.880;2023-06-04T09:46:09;19.60;99.90
1383;DHT22;685;47.196;11.880;2023-06-04T09:48:36;19.60;99.90
1383;DHT22;685;47.196;11.880;2023-06-04T09:51:07;19.60;99.90
1383;DHT22;685;47.196;11.880;2023-06-04T09:53:36;19.50;99.90
1383;DHT22;685;47.196;11.880;2023-06-04T09:56:05;19.50;99.90
1383;DHT22;685;47.196;11.880;2023-06-04T09:58:34;19.50;99.90
1383;DHT22;685;47.196;11.880;2023-06-04T10:01:05;19.50;99.90
1383;DHT22;685;47.196;11.880;2023-06-04T10:03:33;19.50;99.90
1383;DHT22;685;47.196;11.880;2023-06-04T10:06:02;19.40;99.90
1383;DHT22;685;47.196;11.880;2023-06-04T10:08:30;19.40;99.90
1383;DHT22;685;47.196;11.880;2023-06-04T10:11:00;19.50;99.90
1383;DHT22;685;47.196;11.880;2023-06-04T10:15:57;19.60;99.90
1383;DHT22;685;47.196;11.880;2023-06-04T10:18:27;19.70;99.90
1383;DHT22;685;47.196;11.880;2023-06-04T10:20:56;19.80;99.90
1383;DHT22;685;47.196;11.880;2023-06-04T10:23:23;19.80;99.90
1383;DHT22;685;47.196;11.880;2023-06-04T10:25:51;19.80;99.90
1383;DHT22;685;47.196;11.880;2023-06-04T10:28:22;19.70;99.90
1383;DHT22;685;47.196;11.880;2023-06-04T10:30:50;19.80;99.90
1383;DHT22;685;47.196;11.880;2023-06-04T10:33:18;19.80;99.90
1383;DHT22;685;47.196;11.880;2023-06-04T10:35:50;19.90;99.90
1383;DHT22;685;47.196;11.880;2023-06-04T10:38:17;20.00;99.90
1383;DHT22;685;47.196;11.880;2023-06-04T10:40:44;20.00;99.90
1383;DHT22;685;47.196;11.880;2023-06-04T10:43:12;19.90;99.90
1383;DHT22;685;47.196;11.880;2023-06-04T10:45:41;19.90;99.90
1383;DHT22;685;47.196;11.880;2023-06-04T10:48:09;20.00;99.90
1383;DHT22;685;47.196;11.880;2023-06-04T10:50:49;20.00;99.90
1383;DHT22;685;47.196;11.880;2023-06-04T10:53:17;20.10;99.90
1383;DHT22;685;47.196;11.880;2023-06-04T10:55:46;20.10;99.90
1383;DHT22;685;47.196;11.880;2023-06-04T10:58:13;20.20;99.90
1383;DHT22;685;47.196;11.880;2023-06-04T11:00:43;20.20;99.90
1383;DHT22;685;47.196;11.880;2023-06-04T11:03:12;20.20;99.90
1383;DHT22;685;47.196;11.880;2023-06-04T11:05:41;20.20;99.90
1383;DHT22;685;47.196;11.880;2023-06-04T11:08:09;20.20;99.90
1383;DHT22;685;47.196;11.880;2023-06-04T11:10:38;20.30;99.90
1383;DHT22;685;47.196;11.880;2023-06-04T11:13:05;20.40;99.90
1383;DHT22;685;47.196;11.880;2023-06-04T11:15:40;20.40;99.90
1383;DHT22;685;47.196;11.880;2023-06-04T11:18:13;20.50;99.90
1383;DHT22;685;47.196;11.880;2023-06-04T11:20:40;20.50;99.90
1383;DHT22;685;47.196;11.880;2023-06-04T11:23:08;20.60;99.90
1383;DHT22;685;47.196;11.880;2023-06-04T11:25:35;20.60;99.90
1383;DHT22;685;47.196;11.880;2023-06-04T11:28:02;20.60;99.90
1383;DHT22;685;47.196;11.880;2023-06-04T11:30:29;20.70;99.90
1383;DHT22;685;47.196;11.880;2023-06-04T11:33:03;20.80;99.90
1383;DHT22;685;47.196;11.880;2023-06-04T11:35:39;20.70;99.90
1383;DHT22;685;47.196;11.880;2023-06-04T11:38:07;20.70;99.90
1383;DHT22;685;47.196;11.880;2023-06-04T11:40:34;20.70;99.90
1383;DHT22;685;47.196;11.880;2023-06-04T11:43:02;20.70;99.90
1383;DHT22;685;47.196;11.880;2023-06-04T11:45:29;20.80;99.90
1383;DHT22;685;47.196;11.880;2023-06-04T11:50:27;20.90;99.90
1383;DHT22;685;47.196;11.880;2023-06-04T11:52:56;21.00;99.90
1383;DHT22;685;47.196;11.880;2023-06-04T11:55:23;21.10;99.90
1383;DHT22;685;47.196;11.880;2023-06-04T11:57:50;21.10;99.90
1383;DHT22;685;47.196;11.880;2023-06-04T12:00:18;21.20;99.90
1383;DHT22;685;47.196;11.880;2023-06-04T12:02:50;21.30;99.90
1383;DHT22;685;47.196;11.880;2023-06-04T12:05:18;21.40;99.90
1383;DHT22;685;47.196;11.880;2023-06-04T12:07:47;21.40;99.90
1383;DHT22;685;47.196;11.880;2023-06-04T12:10:18;21.30;99.90
1383;DHT22;685;47.196;11.880;2023-06-04T12:12:45;21.30;99.90
1383;DHT22;685;47.196;11.880;2023-06-04T12:15:12;21.40;99.90
1383;DHT22;685;47.196;11.880;2023-06-04T12:17:49;21.40;99.90
1383;DHT22;685;47.196;11.880;2023-06-04T12:20:17;21.40;99.90
1383;DHT22;685;47.196;11.880;2023-06-04T12:22:45;21.40;99.90
1383;DHT22;685;47.196;11.880;2023-06-04T12:25:22;21.30;99.90
1383;DHT22;685;47.196;11.880;2023-06-04T12:27:51;21.30;99.90
1383;DHT22;685;47.196;11.880;2023-06-04T12:30:18;21.30;99.90
1383;DHT22;685;47.196;11.880;2023-06-04T12:32:45;21.30;99.90
1383;DHT22;685;47.196;11.880;2023-06-04T12:35:12;21.30;99.90
1383;DHT22;685;47.196;11.880;2023-06-04T12:37:39;21.30;99.90
1383;DHT22;685;47.196;11.880;2023-06-04T12:40:07;21.20;99.90
1383;DHT22;685;47.196;11.880;2023-06-04T12:42:34;21.20;99.90
1383;DHT22;685;47.196;11.880;2023-06-04T12:45:03;21.20;99.90
1383;DHT22;685;47.196;11.880;2023-06-04T12:47:30;21.30;99.90
1383;DHT22;685;47.196;11.880;2023-06-04T12:49:58;21.30;99.90
1383;DHT22;685;47.196;11.880;2023-06-04T12:52:26;21.30;99.90
1383;DHT22;685;47.196;11.880;2023-06-04T12:54:53;21.40;99.90
1383;DHT22;685;47.196;11.880;2023-06-04T12:57:20;21.40;99.90
1383;DHT22;685;47.196;11.880;2023-06-04T12:59:46;21.50;99.90
1383;DHT22;685;47.196;11.880;2023-06-04T13:02:15;21.50;99.90
1383;DHT22;685;47.196;11.880;2023-06-04T13:04:42;21.70;99.90
1383;DHT22;685;47.196;11.880;2023-06-04T13:07:10;21.70;99.90
1383;DHT22;685;47.196;11.880;2023-06-04T13:09:37;21.70;99.90
1383;DHT22;685;47.196;11.880;2023-06-04T13:12:04;21.70;99.90
1383;DHT22;685;47.196;11.880;2023-06-04T13:14:31;21.70;99.90
1383;DHT22;685;47.196;11.880;2023-06-04T13:17:00;21.60;99.90
1383;DHT22;685;47.196;11.880;2023-06-04T13:19:28;21.60;99.90
1383;DHT22;685;47.196;11.880;2023-06-04T13:21:55;21.60;99.90
1383;DHT22;685;47.196;11.880;2023-06-04T13:24:22;21.60;99.90
1383;DHT22;685;47.196;11.880;2023-06-04T13:26:49;21.50;99.90
1383;DHT22;685;47.196;11.880;2023-06-04T13:29:16;21.50;99.90
1383;DHT22;685;47.196;11.880;2023-06-04T13:31:47;21.50;99.90
1383;DHT22;685;47.196;11.880;2023-06-04T13:34:14;21.50;99.90
1383;DHT22;685;47.196;11.880;2023-06-04T13:36:43;21.50;99.90
1383;DHT22;685;47.196;11.880;2023-06-04T13:39:10;21.60;99.90
1383;DHT22;685;47.196;11.880;2023-06-04T13:41:38;21.60;99.90
1383;DHT22;685;47.196;11.880;2023-06-04T13:44:05;21.70;99.90
1383;DHT22;685;47.196;11.880;2023-06-04T13:46:32;21.70;99.90
1383;DHT22;685;47.196;11.880;2023-06-04T13:48:59;21.60;99.90
1383;DHT22;685;47.196;11.880;2023-06-04T13:51:27;21.60;99.90
1383;DHT22;685;47.196;11.880;2023-06-04T13:53:57;21.70;99.90
1383;DHT22;685;47.196;11.880;2023-06-04T13:56:24;21.70;99.90
1383;DHT22;685;47.196;11.880;2023-06-04T13:58:51;21.70;99.90
1383;DHT22;685;47.196;11.880;2023-06-04T14:01:18;21.70;99.90
1383;DHT22;685;47.196;11.880;2023-06-04T14:03:45;21.70;99.90
1383;DHT22;685;47.196;11.880;2023-06-04T14:06:12;21.80;99.90
1383;DHT22;685;47.196;11.880;2023-06-04T14:08:39;21.70;99.90
1383;DHT22;685;47.196;11.880;2023-06-04T14:11:07;21.60;99.90
1383;DHT22;685;47.196;11.880;2023-06-04T14:13:34;21.60;99.90
1383;DHT22;685;47.196;11.880;2023-06-04T14:16:01;21.50;99.90
1383;DHT22;685;47.196;11.880;2023-06-04T14:18:28;21.40;99.90
1383;DHT22;685;47.196;11.880;2023-06-04T14:20:55;21.30;99.90
1383;DHT22;685;47.196;11.880;2023-06-04T14:23:22;21.30;99.90
1383;DHT22;685;47.196;11.880;2023-06-04T14:25:49;21.30;99.90
1383;DHT22;685;47.196;11.880;2023-06-04T14:28:17;21.20;99.90
1383;DHT22;685;47.196;11.880;2023-06-04T14:30:46;21.20;99.90
1383;DHT22;685;47.196;11.880;2023-06-04T14:33:13;21.20;99.90
1383;DHT22;685;47.196;11.880;2023-06-04T14:35:40;21.10;99.90
1383;DHT22;685;47.196;11.880;2023-06-04T14:38:12;21.10;99.90
1383;DHT22;685;47.196;11.880;2023-06-04T14:40:39;21.10;99.90
1383;DHT22;685;47.196;11.880;2023-06-04T14:43:07;21.10;99.90
1383;DHT22;685;47.196;11.880;2023-06-04T14:45:35;21.10;99.90
1383;DHT22;685;47.196;11.880;2023-06-04T14:48:04;21.10;99.90
1383;DHT22;685;47.196;11.880;2023-06-04T14:50:31;21.10;99.90
1383;DHT22;685;47.196;11.880;2023-06-04T14:52:58;21.00;99.90
1383;DHT22;685;47.196;11.880;2023-06-04T14:55:25;21.00;99.90
1383;DHT22;685;47.196;11.880;2023-06-04T14:57:52;21.00;99.90
1383;DHT22;685;47.196;11.880;2023-06-04T15:00:18;21.00;99.90
1383;DHT22;685;47.196;11.880;2023-06-04T15:02:47;21.00;99.90
1383;DHT22;685;47.196;11.880;2023-06-04T15:05:14;20.80;99.90
1383;DHT22;685;47.196;11.880;2023-06-04T15:07:41;20.70;99.90
1383;DHT22;685;47.196;11.880;2023-06-04T15:10:08;20.60;99.90
1383;DHT22;685;47.196;11.880;2023-06-04T15:12:35;20.40;99.90
1383;DHT22;685;47.196;11.880;2023-06-04T15:15:04;20.20;99.90
1383;DHT22;685;47.196;11.880;2023-06-04T15:17:32;20.10;99.90
1383;DHT22;685;47.196;11.880;2023-06-04T15:20:00;20.00;99.90
1383;DHT22;685;47.196;11.880;2023-06-04T15:22:28;20.00;99.90
1383;DHT22;685;47.196;11.880;2023-06-04T15:24:55;19.90;99.90
1383;DHT22;685;47.196;11.880;2023-06-04T15:27:22;19.90;99.90
1383;DHT22;685;47.196;11.880;2023-06-04T15:29:49;19.70;99.90
1383;DHT22;685;47.196;11.880;2023-06-04T15:32:15;19.70;99.90
1383;DHT22;685;47.196;11.880;2023-06-04T15:34:42;19.80;99.90
1383;DHT22;685;47.196;11.880;2023-06-04T15:37:11;19.40;99.90
1383;DHT22;685;47.196;11.880;2023-06-04T15:39:38;19.40;99.90
1383;DHT22;685;47.196;11.880;2023-06-04T15:42:06;19.50;99.90
1383;DHT22;685;47.196;11.880;2023-06-04T15:44:33;19.30;99.90
1383;DHT22;685;47.196;11.880;2023-06-04T15:47:00;19.30;99.90
1383;DHT22;685;47.196;11.880;2023-06-04T15:49:27;19.10;99.90
1383;DHT22;685;47.196;11.880;2023-06-04T15:51:54;19.10;99.90
1383;DHT22;685;47.196;11.880;2023-06-04T15:54:23;19.00;99.90
1383;DHT22;685;47.196;11.880;2023-06-04T15:56:50;19.10;99.90
1383;DHT22;685;47.196;11.880;2023-06-04T15:59:17;19.10;99.90
1383;DHT22;685;47.196;11.880;2023-06-04T16:01:43;19.00;99.90
1383;DHT22;685;47.196;11.880;2023-06-04T16:04:11;19.00;99.90
1383;DHT22;685;47.196;11.880;2023-06-04T16:06:38;18.90;99.90
1383;DHT22;685;47.196;11.880;2023-06-04T16:09:05;18.90;99.90
1383;DHT22;685;47.196;11.880;2023-06-04T16:11:34;18.70;99.90
1383;DHT22;685;47.196;11.880;2023-06-04T16:14:01;18.20;99.90
1383;DHT22;685;47.196;11.880;2023-06-04T16:16:29;17.90;99.90
1383;DHT22;685;47.196;11.880;2023-06-04T16:18:56;17.60;99.90